sensor_id;sensor_type;location;lat;lon;timestamp;pressure;altitude;pressure_sealevel;temperature;humidity
65880;BME280;52661;51.364;6.054;2024-02-23T00:00:23;98579.88;;;5.84;100.00
65880;BME280;52661;51.364;6.054;2024-02-23T00:02:48;98573.16;;;5.69;100.00
65880;BME280;52661;51.364;6.054;2024-02-23T00:05:14;98584.41;;;5.64;100.00
65880;BME280;52661;51.364;6.054;2024-02-23T00:07:39;98590.47;;;5.68;100.00
65880;BME280;52661;51.364;6.054;2024-02-23T00:10:05;98589.16;;;5.80;100.00
65880;BME280;52661;51.364;6.054;2024-02-23T00:12:31;98590.31;;;5.79;100.00
65880;BME280;52661;51.364;6.054;2024-02-23T00:14:57;98599.53;;;5.81;100.00
65880;BME280;52661;51.364;6.054;2024-02-23T00:17:22;98598.75;;;5.81;100.00
65880;BME280;52661;51.364;6.054;2024-02-23T00:19:48;98601.41;;;5.84;100.00
65880;BME280;52661;51.364;6.054;2024-02-23T00:22:14;98599.09;;;5.83;100.00
65880;BME280;52661;51.364;6.054;2024-02-23T00:24:39;98606.00;;;5.87;100.00
65880;BME280;52661;51.364;6.054;2024-02-23T00:27:06;98605.63;;;5.85;100.00
65880;BME280;52661;51.364;6.054;2024-02-23T00:29:31;98607.91;;;5.87;100.00
65880;BME280;52661;51.364;6.054;2024-02-23T00:31:56;98610.88;;;5.96;100.00
65880;BME280;52661;51.364;6.054;2024-02-23T00:34:22;98623.03;;;5.77;100.00
65880;BME280;52661;51.364;6.054;2024-02-23T00:36:47;98620.28;;;5.81;100.00
65880;BME280;52661;51.364;6.054;2024-02-23T00:39:14;98623.44;;;5.76;100.00
65880;BME280;52661;51.364;6.054;2024-02-23T00:41:39;98612.09;;;5.91;100.00
65880;BME280;52661;51.364;6.054;2024-02-23T00:44:05;98617.19;;;5.86;100.00
65880;BME280;52661;51.364;6.054;2024-02-23T00:46:30;98619.94;;;5.79;100.00
65880;BME280;52661;51.364;6.054;2024-02-23T00:48:56;98626.41;;;5.85;100.00
65880;BME280;52661;51.364;6.054;2024-02-23T00:51:21;98622.91;;;5.88;100.00
65880;BME280;52661;51.364;6.054;2024-02-23T00:53:46;98625.25;;;5.82;100.00
65880;BME280;52661;51.364;6.054;2024-02-23T00:56:12;98626.91;;;5.76;100.00
65880;BME280;52661;51.364;6.054;2024-02-23T00:58:38;98638.31;;;5.87;100.00
65880;BME280;52661;51.364;6.054;2024-02-23T01:01:03;98643.84;;;5.73;100.00
65880;BME280;52661;51.364;6.054;2024-02-23T01:03:29;98634.56;;;5.78;100.00
65880;BME280;52661;51.364;6.054;2024-02-23T01:05:54;98639.13;;;5.81;100.00
65880;BME280;52661;51.364;6.054;2024-02-23T01:08:19;98645.63;;;5.83;100.00
65880;BME280;52661;51.364;6.054;2024-02-23T01:10:45;98657.72;;;5.72;100.00
65880;BME280;52661;51.364;6.054;2024-02-23T01:13:10;98656.88;;;5.78;100.00
65880;BME280;52661;51.364;6.054;2024-02-23T01:15:35;98656.56;;;5.73;100.00
65880;BME280;52661;51.364;6.054;2024-02-23T01:18:01;98657.22;;;5.80;100.00
65880;BME280;52661;51.364;6.054;2024-02-23T01:20:26;98666.34;;;5.90;100.00
65880;BME280;52661;51.364;6.054;2024-02-23T01:22:52;98660.25;;;5.82;100.00
65880;BME280;52661;51.364;6.054;2024-02-23T01:25:17;98660.91;;;5.93;100.00
65880;BME280;52661;51.364;6.054;2024-02-23T01:27:43;98667.16;;;5.87;100.00
65880;BME280;52661;51.364;6.054;2024-02-23T01:30:10;98661.50;;;5.78;100.00
65880;BME280;52661;51.364;6.054;2024-02-23T01:32:35;98675.81;;;5.71;100.00
65880;BME280;52661;51.364;6.054;2024-02-23T01:35:02;98680.06;;;5.69;100.00
65880;BME280;52661;51.364;6.054;2024-02-23T01:37:28;98672.34;;;5.71;100.00
65880;BME280;52661;51.364;6.054;2024-02-23T01:39:53;98674.66;;;5.69;100.00
65880;BME280;52661;51.364;6.054;2024-02-23T01:42:18;98674.72;;;5.65;100.00
65880;BME280;52661;51.364;6.054;2024-02-23T01:44:44;98664.72;;;5.66;100.00
65880;BME280;52661;51.364;6.054;2024-02-23T01:47:10;98677.03;;;5.67;100.00
65880;BME280;52661;51.364;6.054;2024-02-23T01:49:36;98678.22;;;5.62;100.00
65880;BME280;52661;51.364;6.054;2024-02-23T01:52:02;98681.00;;;5.55;100.00
65880;BME280;52661;51.364;6.054;2024-02-23T01:54:29;98676.41;;;5.56;100.00
65880;BME280;52661;51.364;6.054;2024-02-23T01:56:55;98675.72;;;5.48;100.00
65880;BME280;52661;51.364;6.054;2024-02-23T01:59:22;98685.38;;;5.45;100.00
65880;BME280;52661;51.364;6.054;2024-02-23T02:01:48;98701.41;;;5.53;100.00
65880;BME280;52661;51.364;6.054;2024-02-23T02:04:13;98693.00;;;5.47;100.00
65880;BME280;52661;51.364;6.054;2024-02-23T02:06:39;98691.91;;;5.44;100.00
65880;BME280;52661;51.364;6.054;2024-02-23T02:09:04;98687.25;;;5.49;100.00
65880;BME280;52661;51.364;6.054;2024-02-23T02:11:30;98686.19;;;5.42;100.00
65880;BME280;52661;51.364;6.054;2024-02-23T02:13:56;98687.38;;;5.38;100.00
65880;BME280;52661;51.364;6.054;2024-02-23T02:16:21;98692.28;;;5.43;100.00
65880;BME280;52661;51.364;6.054;2024-02-23T02:18:46;98679.25;;;5.41;100.00
65880;BME280;52661;51.364;6.054;2024-02-23T02:21:12;98693.88;;;5.40;100.00
65880;BME280;52661;51.364;6.054;2024-02-23T02:23:37;98685.75;;;5.44;100.00
65880;BME280;52661;51.364;6.054;2024-02-23T02:26:03;98694.69;;;5.37;100.00
65880;BME280;52661;51.364;6.054;2024-02-23T02:28:29;98696.94;;;5.39;100.00
65880;BME280;52661;51.364;6.054;2024-02-23T02:30:55;98702.31;;;5.42;100.00
65880;BME280;52661;51.364;6.054;2024-02-23T02:33:21;98716.25;;;5.34;100.00
65880;BME280;52661;51.364;6.054;2024-02-23T02:35:47;98711.97;;;5.36;100.00
65880;BME280;52661;51.364;6.054;2024-02-23T02:38:13;98714.53;;;5.47;100.00
65880;BME280;52661;51.364;6.054;2024-02-23T02:40:39;98704.34;;;5.31;100.00
65880;BME280;52661;51.364;6.054;2024-02-23T02:43:05;98699.03;;;5.28;100.00
65880;BME280;52661;51.364;6.054;2024-02-23T02:45:31;98710.56;;;5.25;100.00
65880;BME280;52661;51.364;6.054;2024-02-23T02:47:56;98707.91;;;5.21;100.00
65880;BME280;52661;51.364;6.054;2024-02-23T02:50:22;98714.00;;;5.25;100.00
65880;BME280;52661;51.364;6.054;2024-02-23T02:52:47;98714.09;;;5.18;100.00
65880;BME280;52661;51.364;6.054;2024-02-23T02:55:14;98713.69;;;5.20;100.00
65880;BME280;52661;51.364;6.054;2024-02-23T02:57:39;98718.63;;;5.25;100.00
65880;BME280;52661;51.364;6.054;2024-02-23T03:00:05;98722.16;;;5.18;100.00
65880;BME280;52661;51.364;6.054;2024-02-23T03:02:31;98717.88;;;5.24;100.00
65880;BME280;52661;51.364;6.054;2024-02-23T03:04:56;98714.06;;;5.22;100.00
65880;BME280;52661;51.364;6.054;2024-02-23T03:07:22;98722.84;;;5.26;100.00
65880;BME280;52661;51.364;6.054;2024-02-23T03:09:47;98729.41;;;5.21;100.00
65880;BME280;52661;51.364;6.054;2024-02-23T03:12:14;98728.56;;;5.31;100.00
65880;BME280;52661;51.364;6.054;2024-02-23T03:14:39;98734.00;;;5.28;100.00
65880;BME280;52661;51.364;6.054;2024-02-23T03:17:07;98731.66;;;5.30;100.00
65880;BME280;52661;51.364;6.054;2024-02-23T03:19:32;98726.69;;;5.25;100.00
65880;BME280;52661;51.364;6.054;2024-02-23T03:21:58;98729.31;;;5.32;100.00
65880;BME280;52661;51.364;6.054;2024-02-23T03:24:24;98730.84;;;5.33;100.00
65880;BME280;52661;51.364;6.054;2024-02-23T03:26:49;98734.31;;;5.33;100.00
65880;BME280;52661;51.364;6.054;2024-02-23T03:29:14;98725.13;;;5.31;100.00
65880;BME280;52661;51.364;6.054;2024-02-23T03:31:41;98737.00;;;5.33;100.00
65880;BME280;52661;51.364;6.054;2024-02-23T03:34:06;98724.66;;;5.36;100.00
65880;BME280;52661;51.364;6.054;2024-02-23T03:36:31;98741.53;;;5.40;100.00
65880;BME280;52661;51.364;6.054;2024-02-23T03:38:57;98732.75;;;5.32;100.00
65880;BME280;52661;51.364;6.054;2024-02-23T03:41:22;98734.72;;;5.28;100.00
65880;BME280;52661;51.364;6.054;2024-02-23T03:43:47;98738.91;;;5.33;100.00
65880;BME280;52661;51.364;6.054;2024-02-23T03:46:13;98741.88;;;5.45;100.00
65880;BME280;52661;51.364;6.054;2024-02-23T03:48:40;98744.56;;;5.45;100.00
65880;BME280;52661;51.364;6.054;2024-02-23T03:51:05;98758.34;;;5.47;100.00
65880;BME280;52661;51.364;6.054;2024-02-23T03:53:31;98750.25;;;5.51;100.00
65880;BME280;52661;51.364;6.054;2024-02-23T03:55:57;98740.28;;;5.48;100.00
65880;BME280;52661;51.364;6.054;2024-02-23T03:58:22;98750.63;;;5.53;100.00
65880;BME280;52661;51.364;6.054;2024-02-23T04:00:48;98746.06;;;5.46;100.00
65880;BME280;52661;51.364;6.054;2024-02-23T04:03:13;98746.06;;;5.46;100.00
65880;BME280;52661;51.364;6.054;2024-02-23T04:05:38;98740.69;;;5.46;100.00
65880;BME280;52661;51.364;6.054;2024-02-23T04:08:04;98746.81;;;5.47;100.00
65880;BME280;52661;51.364;6.054;2024-02-23T04:10:29;98756.81;;;5.46;100.00
65880;BME280;52661;51.364;6.054;2024-02-23T04:12:55;98744.50;;;5.49;100.00
65880;BME280;52661;51.364;6.054;2024-02-23T04:15:20;98752.97;;;5.47;100.00
65880;BME280;52661;51.364;6.054;2024-02-23T04:17:46;98752.66;;;5.42;100.00
65880;BME280;52661;51.364;6.054;2024-02-23T04:20:11;98754.97;;;5.40;100.00
65880;BME280;52661;51.364;6.054;2024-02-23T04:22:37;98756.81;;;5.46;100.00
65880;BME280;52661;51.364;6.054;2024-02-23T04:25:03;98744.88;;;5.51;100.00
65880;BME280;52661;51.364;6.054;2024-02-23T04:27:30;98746.09;;;5.43;100.00
65880;BME280;52661;51.364;6.054;2024-02-23T04:29:55;98745.72;;;5.44;100.00
65880;BME280;52661;51.364;6.054;2024-02-23T04:32:21;98754.53;;;5.45;100.00
65880;BME280;52661;51.364;6.054;2024-02-23T04:34:46;98754.16;;;5.43;100.00
65880;BME280;52661;51.364;6.054;2024-02-23T04:37:11;98756.81;;;5.46;100.00
65880;BME280;52661;51.364;6.054;2024-02-23T04:39:36;98763.38;;;5.45;100.00
65880;BME280;52661;51.364;6.054;2024-02-23T04:42:03;98764.13;;;5.50;100.00
65880;BME280;52661;51.364;6.054;2024-02-23T04:44:29;98758.72;;;5.50;100.00
65880;BME280;52661;51.364;6.054;2024-02-23T04:46:54;98756.44;;;5.48;100.00
65880;BME280;52661;51.364;6.054;2024-02-23T04:49:20;98767.16;;;5.52;100.00
65880;BME280;52661;51.364;6.054;2024-02-23T04:51:45;98777.53;;;5.53;100.00
65880;BME280;52661;51.364;6.054;2024-02-23T04:54:11;98769.03;;;5.55;100.00
65880;BME280;52661;51.364;6.054;2024-02-23T04:56:36;98779.44;;;5.53;100.00
65880;BME280;52661;51.364;6.054;2024-02-23T04:59:02;98776.00;;;5.52;100.00
65880;BME280;52661;51.364;6.054;2024-02-23T05:01:27;98776.81;;;5.49;100.00
65880;BME280;52661;51.364;6.054;2024-02-23T05:03:52;98782.50;;;5.55;100.00
65880;BME280;52661;51.364;6.054;2024-02-23T05:06:18;98786.34;;;5.54;100.00
65880;BME280;52661;51.364;6.054;2024-02-23T05:08:43;98795.88;;;5.62;100.00
65880;BME280;52661;51.364;6.054;2024-02-23T05:11:09;98784.72;;;5.63;100.00
65880;BME280;52661;51.364;6.054;2024-02-23T05:13:35;98798.22;;;5.60;100.00
65880;BME280;52661;51.364;6.054;2024-02-23T05:16:00;98798.91;;;5.67;100.00
65880;BME280;52661;51.364;6.054;2024-02-23T05:18:25;98803.47;;;5.70;100.00
65880;BME280;52661;51.364;6.054;2024-02-23T05:20:51;98791.94;;;5.70;100.00
65880;BME280;52661;51.364;6.054;2024-02-23T05:23:16;98793.47;;;5.71;100.00
65880;BME280;52661;51.364;6.054;2024-02-23T05:25:42;98778.88;;;5.68;100.00
65880;BME280;52661;51.364;6.054;2024-02-23T05:28:07;98778.06;;;5.75;100.00
65880;BME280;52661;51.364;6.054;2024-02-23T05:30:33;98775.75;;;5.73;100.00
65880;BME280;52661;51.364;6.054;2024-02-23T05:32:58;98784.59;;;5.74;100.00
65880;BME280;52661;51.364;6.054;2024-02-23T05:35:24;98771.94;;;5.71;100.00
65880;BME280;52661;51.364;6.054;2024-02-23T05:37:50;98766.56;;;5.71;100.00
65880;BME280;52661;51.364;6.054;2024-02-23T05:40:15;98763.19;;;5.63;100.00
65880;BME280;52661;51.364;6.054;2024-02-23T05:42:41;98779.63;;;5.69;100.00
65880;BME280;52661;51.364;6.054;2024-02-23T05:45:07;98780.78;;;5.71;100.00
65880;BME280;52661;51.364;6.054;2024-02-23T05:47:37;98782.25;;;5.76;100.00
65880;BME280;52661;51.364;6.054;2024-02-23T05:50:04;98769.56;;;5.76;100.00
65880;BME280;52661;51.364;6.054;2024-02-23T05:52:32;98767.97;;;5.79;100.00
65880;BME280;52661;51.364;6.054;2024-02-23T05:54:58;98775.66;;;5.80;100.00
65880;BME280;52661;51.364;6.054;2024-02-23T05:57:25;98775.28;;;5.82;100.00
65880;BME280;52661;51.364;6.054;2024-02-23T05:59:51;98771.78;;;5.85;100.00
65880;BME280;52661;51.364;6.054;2024-02-23T06:02:16;98767.63;;;5.77;100.00
65880;BME280;52661;51.364;6.054;2024-02-23T06:04:41;98781.41;;;5.86;100.00
65880;BME280;52661;51.364;6.054;2024-02-23T06:07:07;98774.84;;;5.83;100.00
65880;BME280;52661;51.364;6.054;2024-02-23T06:09:32;98769.56;;;5.76;100.00
65880;BME280;52661;51.364;6.054;2024-02-23T06:11:57;98767.25;;;5.78;100.00
65880;BME280;52661;51.364;6.054;2024-02-23T06:14:23;98766.38;;;5.85;100.00
65880;BME280;52661;51.364;6.054;2024-02-23T06:16:49;98761.03;;;5.81;100.00
65880;BME280;52661;51.364;6.054;2024-02-23T06:19:14;98755.66;;;5.81;100.00
65880;BME280;52661;51.364;6.054;2024-02-23T06:21:40;98763.69;;;5.88;100.00
65880;BME280;52661;51.364;6.054;2024-02-23T06:24:05;98761.78;;;5.85;100.00
65880;BME280;52661;51.364;6.054;2024-02-23T06:26:32;98754.84;;;5.88;100.00
65880;BME280;52661;51.364;6.054;2024-02-23T06:28:58;98758.69;;;5.83;100.00
65880;BME280;52661;51.364;6.054;2024-02-23T06:31:23;98762.91;;;5.88;100.00
65880;BME280;52661;51.364;6.054;2024-02-23T06:33:48;98750.22;;;5.88;100.00
65880;BME280;52661;51.364;6.054;2024-02-23T06:36:16;98772.09;;;5.90;100.00
65880;BME280;52661;51.364;6.054;2024-02-23T06:38:41;98758.25;;;5.92;100.00
65880;BME280;52661;51.364;6.054;2024-02-23T06:41:07;98774.78;;;5.90;100.00
65880;BME280;52661;51.364;6.054;2024-02-23T06:43:33;98762.47;;;5.93;100.00
65880;BME280;52661;51.364;6.054;2024-02-23T06:46:05;98757.00;;;6.00;100.00
65880;BME280;52661;51.364;6.054;2024-02-23T06:48:30;98751.31;;;5.91;100.00
65880;BME280;52661;51.364;6.054;2024-02-23T06:50:57;98758.59;;;5.94;100.00
65880;BME280;52661;51.364;6.054;2024-02-23T06:53:22;98762.81;;;5.95;100.00
65880;BME280;52661;51.364;6.054;2024-02-23T06:55:48;98768.19;;;5.95;100.00
65880;BME280;52661;51.364;6.054;2024-02-23T06:58:13;98750.56;;;5.90;100.00
65880;BME280;52661;51.364;6.054;2024-02-23T07:00:40;98758.56;;;5.98;100.00
65880;BME280;52661;51.364;6.054;2024-02-23T07:03:05;98770.47;;;6.00;100.00
65880;BME280;52661;51.364;6.054;2024-02-23T07:05:30;98779.66;;;6.03;100.00
65880;BME280;52661;51.364;6.054;2024-02-23T07:07:57;98766.22;;;5.99;100.00
65880;BME280;52661;51.364;6.054;2024-02-23T07:10:22;98756.63;;;5.98;100.00
65880;BME280;52661;51.364;6.054;2024-02-23T07:12:50;98768.44;;;6.08;100.00
65880;BME280;52661;51.364;6.054;2024-02-23T07:15:18;98757.00;;;6.00;100.00
65880;BME280;52661;51.364;6.054;2024-02-23T07:17:45;98767.81;;;5.97;100.00
65880;BME280;52661;51.364;6.054;2024-02-23T07:20:10;98763.50;;;6.03;100.00
65880;BME280;52661;51.364;6.054;2024-02-23T07:22:36;98763.34;;;6.13;100.00
65880;BME280;52661;51.364;6.054;2024-02-23T07:25:01;98776.16;;;6.06;100.00
65880;BME280;52661;51.364;6.054;2024-02-23T07:27:29;98769.59;;;6.07;100.00
65880;BME280;52661;51.364;6.054;2024-02-23T07:29:55;98770.03;;;6.02;100.00
65880;BME280;52661;51.364;6.054;2024-02-23T07:32:21;98772.25;;;6.10;100.00
65880;BME280;52661;51.364;6.054;2024-02-23T07:34:46;98778.06;;;6.05;100.00
65880;BME280;52661;51.364;6.054;2024-02-23T07:37:11;98777.97;;;6.12;100.00
65880;BME280;52661;51.364;6.054;2024-02-23T07:39:37;98773.72;;;6.15;100.00
65880;BME280;52661;51.364;6.054;2024-02-23T07:42:03;98784.03;;;6.20;100.00
65880;BME280;52661;51.364;6.054;2024-02-23T07:44:28;98778.31;;;6.18;100.00
65880;BME280;52661;51.364;6.054;2024-02-23T07:46:53;98777.50;;;6.21;100.00
65880;BME280;52661;51.364;6.054;2024-02-23T07:49:20;98786.72;;;6.20;100.00
65880;BME280;52661;51.364;6.054;2024-02-23T07:51:47;98778.97;;;6.25;100.00
65880;BME280;52661;51.364;6.054;2024-02-23T07:54:12;98769.75;;;6.23;100.00
65880;BME280;52661;51.364;6.054;2024-02-23T07:56:38;98770.56;;;6.20;100.00
65880;BME280;52661;51.364;6.054;2024-02-23T07:59:03;98776.31;;;6.22;100.00
65880;BME280;52661;51.364;6.054;2024-02-23T08:01:28;98783.94;;;6.27;100.00
65880;BME280;52661;51.364;6.054;2024-02-23T08:03:54;98776.19;;;6.32;100.00
65880;BME280;52661;51.364;6.054;2024-02-23T08:06:19;98790.94;;;6.48;100.00
65880;BME280;52661;51.364;6.054;2024-02-23T08:08:45;98776.56;;;6.31;100.00
65880;BME280;52661;51.364;6.054;2024-02-23T08:11:11;98775.84;;;6.27;100.00
65880;BME280;52661;51.364;6.054;2024-02-23T08:13:37;98799.25;;;6.33;100.00
65880;BME280;52661;51.364;6.054;2024-02-23T08:16:02;98786.84;;;6.39;100.00
65880;BME280;52661;51.364;6.054;2024-02-23T08:18:29;98784.50;;;6.41;100.00
65880;BME280;52661;51.364;6.054;2024-02-23T08:20:54;98782.63;;;6.38;100.00
65880;BME280;52661;51.364;6.054;2024-02-23T08:23:19;98797.16;;;6.44;100.00
65880;BME280;52661;51.364;6.054;2024-02-23T08:25:46;98787.53;;;6.47;100.00
65880;BME280;52661;51.364;6.054;2024-02-23T08:28:12;98784.06;;;6.47;100.00
65880;BME280;52661;51.364;6.054;2024-02-23T08:30:37;98791.94;;;6.61;100.00
65880;BME280;52661;51.364;6.054;2024-02-23T08:33:02;98782.03;;;6.54;100.00
65880;BME280;52661;51.364;6.054;2024-02-23T08:35:28;98776.97;;;6.56;100.00
65880;BME280;52661;51.364;6.054;2024-02-23T08:37:53;98782.22;;;6.67;100.00
65880;BME280;52661;51.364;6.054;2024-02-23T08:40:19;98787.31;;;6.61;100.00
65880;BME280;52661;51.364;6.054;2024-02-23T08:42:44;98782.81;;;6.51;100.00
65880;BME280;52661;51.364;6.054;2024-02-23T08:45:11;98790.00;;;6.61;100.00
65880;BME280;52661;51.364;6.054;2024-02-23T08:47:38;98781.59;;;6.56;100.00
65880;BME280;52661;51.364;6.054;2024-02-23T08:50:05;98774.28;;;6.56;100.00
65880;BME280;52661;51.364;6.054;2024-02-23T08:52:30;98768.59;;;6.51;100.00
65880;BME280;52661;51.364;6.054;2024-02-23T08:54:55;98767.13;;;6.46;100.00
65880;BME280;52661;51.364;6.054;2024-02-23T08:57:21;98774.34;;;6.53;100.00
65880;BME280;52661;51.364;6.054;2024-02-23T08:59:51;98775.81;;;6.57;100.00
65880;BME280;52661;51.364;6.054;2024-02-23T09:02:16;98768.72;;;6.67;100.00
65880;BME280;52661;51.364;6.054;2024-02-23T09:04:42;98778.91;;;6.56;100.00
65880;BME280;52661;51.364;6.054;2024-02-23T09:07:09;98777.63;;;6.64;100.00
65880;BME280;52661;51.364;6.054;2024-02-23T09:09:36;98777.13;;;6.72;100.00
65880;BME280;52661;51.364;6.054;2024-02-23T09:12:01;98776.69;;;6.74;100.00
65880;BME280;52661;51.364;6.054;2024-02-23T09:14:26;98766.75;;;6.71;100.00
65880;BME280;52661;51.364;6.054;2024-02-23T09:16:52;98764.44;;;6.69;100.00
65880;BME280;52661;51.364;6.054;2024-02-23T09:19:18;98752.16;;;6.68;100.00
65880;BME280;52661;51.364;6.054;2024-02-23T09:21:44;98759.69;;;6.77;100.00
65880;BME280;52661;51.364;6.054;2024-02-23T09:24:09;98781.03;;;6.91;100.00
65880;BME280;52661;51.364;6.054;2024-02-23T09:26:35;98767.50;;;6.94;100.00
65880;BME280;52661;51.364;6.054;2024-02-23T09:29:00;98783.28;;;6.96;100.00
65880;BME280;52661;51.364;6.054;2024-02-23T09:31:25;98789.25;;;7.07;100.00
65880;BME280;52661;51.364;6.054;2024-02-23T09:33:54;98800.75;;;7.11;100.00
65880;BME280;52661;51.364;6.054;2024-02-23T09:36:19;98795.81;;;7.06;100.00
65880;BME280;52661;51.364;6.054;2024-02-23T09:38:44;98778.94;;;7.02;100.00
65880;BME280;52661;51.364;6.054;2024-02-23T09:41:21;98797.75;;;7.06;100.00
65880;BME280;52661;51.364;6.054;2024-02-23T09:43:47;98787.50;;;7.20;100.00
65880;BME280;52661;51.364;6.054;2024-02-23T09:46:16;98786.38;;;7.18;100.00
65880;BME280;52661;51.364;6.054;2024-02-23T09:48:43;98788.88;;;7.09;100.00
65880;BME280;52661;51.364;6.054;2024-02-23T09:51:10;98777.59;;;7.14;100.00
65880;BME280;52661;51.364;6.054;2024-02-23T09:53:37;98795.75;;;7.10;100.00
65880;BME280;52661;51.364;6.054;2024-02-23T09:56:04;98786.91;;;7.09;100.00
65880;BME280;52661;51.364;6.054;2024-02-23T09:58:34;98794.31;;;7.05;100.00
65880;BME280;52661;51.364;6.054;2024-02-23T10:01:01;98801.53;;;7.12;100.00
65880;BME280;52661;51.364;6.054;2024-02-23T10:03:28;98787.28;;;7.11;100.00
65880;BME280;52661;51.364;6.054;2024-02-23T10:05:55;98790.38;;;7.10;100.00
65880;BME280;52661;51.364;6.054;2024-02-23T10:08:21;98786.09;;;7.12;100.00
65880;BME280;52661;51.364;6.054;2024-02-23T10:10:46;98791.50;;;7.12;100.00
65880;BME280;52661;51.364;6.054;2024-02-23T10:13:12;98801.81;;;7.17;100.00
65880;BME280;52661;51.364;6.054;2024-02-23T10:15:38;98791.44;;;7.16;100.00
65880;BME280;52661;51.364;6.054;2024-02-23T10:18:04;98806.50;;;7.13;100.00
65880;BME280;52661;51.364;6.054;2024-02-23T10:20:30;98806.16;;;7.11;100.00
65880;BME280;52661;51.364;6.054;2024-02-23T10:22:56;98802.56;;;7.18;100.00
65880;BME280;52661;51.364;6.054;2024-02-23T10:25:22;98803.34;;;7.18;100.00
65880;BME280;52661;51.364;6.054;2024-02-23T10:27:47;98810.59;;;7.21;100.00
65880;BME280;52661;51.364;6.054;2024-02-23T10:30:13;98819.13;;;7.20;100.00
65880;BME280;52661;51.364;6.054;2024-02-23T10:32:40;98805.22;;;7.21;100.00
65880;BME280;52661;51.364;6.054;2024-02-23T10:35:18;98804.03;;;7.22;100.00
65880;BME280;52661;51.364;6.054;2024-02-23T10:37:48;98815.81;;;7.32;100.00
65880;BME280;52661;51.364;6.054;2024-02-23T10:40:16;98815.81;;;7.32;100.00
65880;BME280;52661;51.364;6.054;2024-02-23T10:42:43;98828.09;;;7.36;100.00
65880;BME280;52661;51.364;6.054;2024-02-23T10:45:12;98821.97;;;7.32;100.00
65880;BME280;52661;51.364;6.054;2024-02-23T10:47:38;98846.28;;;7.32;100.00
65880;BME280;52661;51.364;6.054;2024-02-23T10:50:03;98832.78;;;7.32;100.00
65880;BME280;52661;51.364;6.054;2024-02-23T10:52:30;98829.69;;;7.34;100.00
65880;BME280;52661;51.364;6.054;2024-02-23T10:54:57;98865.50;;;7.34;100.00
65880;BME280;52661;51.364;6.054;2024-02-23T10:57:25;98848.19;;;7.32;100.00
65880;BME280;52661;51.364;6.054;2024-02-23T10:59:51;98847.09;;;7.29;100.00
65880;BME280;52661;51.364;6.054;2024-02-23T11:02:19;98843.91;;;7.34;100.00
65880;BME280;52661;51.364;6.054;2024-02-23T11:04:49;98849.78;;;7.29;100.00
65880;BME280;52661;51.364;6.054;2024-02-23T11:07:17;98836.63;;;7.31;100.00
65880;BME280;52661;51.364;6.054;2024-02-23T11:09:47;98831.19;;;7.35;100.00
65880;BME280;52661;51.364;6.054;2024-02-23T11:12:25;98821.03;;;7.42;100.00
65880;BME280;52661;51.364;6.054;2024-02-23T11:14:51;98844.03;;;7.51;100.00
65880;BME280;52661;51.364;6.054;2024-02-23T11:17:19;98830.88;;;7.53;100.00
65880;BME280;52661;51.364;6.054;2024-02-23T11:19:46;98827.94;;;7.67;100.00
65880;BME280;52661;51.364;6.054;2024-02-23T11:22:14;98835.00;;;7.80;100.00
65880;BME280;52661;51.364;6.054;2024-02-23T11:24:43;98828.41;;;8.01;100.00
65880;BME280;52661;51.364;6.054;2024-02-23T11:27:13;98838.03;;;8.02;100.00
65880;BME280;52661;51.364;6.054;2024-02-23T11:29:39;98834.66;;;7.98;100.00
65880;BME280;52661;51.364;6.054;2024-02-23T11:32:13;98835.97;;;7.90;100.00
65880;BME280;52661;51.364;6.054;2024-02-23T11:34:39;98840.97;;;7.91;100.00
65880;BME280;52661;51.364;6.054;2024-02-23T11:37:11;98831.19;;;7.98;100.00
65880;BME280;52661;51.364;6.054;2024-02-23T11:39:39;98824.81;;;7.88;100.00
65880;BME280;52661;51.364;6.054;2024-02-23T11:42:06;98828.63;;;7.90;100.00
65880;BME280;52661;51.364;6.054;2024-02-23T11:44:31;98826.63;;;7.95;100.00
65880;BME280;52661;51.364;6.054;2024-02-23T11:46:58;98832.94;;;7.88;100.00
65880;BME280;52661;51.364;6.054;2024-02-23T11:49:28;98833.25;;;7.90;100.00
65880;BME280;52661;51.364;6.054;2024-02-23T11:51:55;98837.97;;;7.86;100.00
65880;BME280;52661;51.364;6.054;2024-02-23T11:54:21;98832.38;;;7.77;100.00
65880;BME280;52661;51.364;6.054;2024-02-23T11:56:47;98831.09;;;7.81;100.00
65880;BME280;52661;51.364;6.054;2024-02-23T11:59:14;98840.41;;;7.80;100.00
65880;BME280;52661;51.364;6.054;2024-02-23T12:01:40;98842.66;;;7.82;100.00
65880;BME280;52661;51.364;6.054;2024-02-23T12:04:05;98852.38;;;7.79;100.00
65880;BME280;52661;51.364;6.054;2024-02-23T12:06:31;98833.81;;;7.81;100.00
65880;BME280;52661;51.364;6.054;2024-02-23T12:08:57;98846.13;;;7.82;100.00
65880;BME280;52661;51.364;6.054;2024-02-23T12:11:23;98839.63;;;7.80;100.00
65880;BME280;52661;51.364;6.054;2024-02-23T12:13:49;98851.59;;;7.79;100.00
65880;BME280;52661;51.364;6.054;2024-02-23T12:16:16;98847.22;;;7.85;100.00
65880;BME280;52661;51.364;6.054;2024-02-23T12:18:41;98853.34;;;7.89;100.00
65880;BME280;52661;51.364;6.054;2024-02-23T12:21:08;98857.56;;;7.90;100.00
65880;BME280;52661;51.364;6.054;2024-02-23T12:23:40;98847.53;;;7.90;100.00
65880;BME280;52661;51.364;6.054;2024-02-23T12:26:06;98850.16;;;7.94;100.00
65880;BME280;52661;51.364;6.054;2024-02-23T12:28:32;98846.28;;;7.95;100.00
65880;BME280;52661;51.364;6.054;2024-02-23T12:31:02;98845.03;;;8.00;100.00
65880;BME280;52661;51.364;6.054;2024-02-23T12:33:35;98844.22;;;8.03;100.00
65880;BME280;52661;51.364;6.054;2024-02-23T12:36:02;98847.06;;;7.96;100.00
65880;BME280;52661;51.364;6.054;2024-02-23T12:38:28;98831.94;;;7.98;100.00
65880;BME280;52661;51.364;6.054;2024-02-23T12:40:54;98844.06;;;7.90;100.00
65880;BME280;52661;51.364;6.054;2024-02-23T12:43:19;98851.06;;;7.87;100.00
65880;BME280;52661;51.364;6.054;2024-02-23T12:45:50;98839.19;;;7.81;100.00
65880;BME280;52661;51.364;6.054;2024-02-23T12:48:16;98850.31;;;7.87;100.00
65880;BME280;52661;51.364;6.054;2024-02-23T12:50:41;98853.41;;;7.85;100.00
65880;BME280;52661;51.364;6.054;2024-02-23T12:53:08;98839.50;;;7.87;100.00